AirNav   Bose Proflight Series 2 Wireless Aviation Headset
 
 1081 users online  

36UT Park City Regional Medical Center Heliport
Park City, Utah, USA

GOING TO PARK CITY?


FAA INFORMATION EFFECTIVE 07 NOVEMBER 2019

Location

FAA Identifier: 36UT
Lat/Long: 40-41-16.2200N 111-28-14.2800W
40-41.270333N 111-28.238000W
40.6878389,-111.4706333
(estimated)
Elevation: 6759 ft. / 2060 m (estimated)
From city: 3 miles WSW of PARK CITY, UT
Time zone: UTC -7 (UTC -6 during Daylight Saving Time)
Zip code: 84098

Heliport Operations

Heliport use: Private use. Permission required prior to landing
Activation date: 09/2011
Control tower: no
ARTCC: SALT LAKE CITY CENTER
FSS: CEDAR CITY FLIGHT SERVICE STATION
Attendance: UNATNDD
Wind indicator: yes
Segmented circle: no
Lights: SS-SR

Heliport Communications

WX AWOS-3PT at HCR (13 nm S): 124.825 (435-657-0892)

Nearby radio navigation aids

VOR radial/distance  VOR name  Freq  Var
TCHr097/25.2WASATCH VORTAC116.8016E
PVUr007/30.6PROVO VOR/DME108.4015E
FFUr025/32.8FAIRFIELD VORTAC116.6016E
EVWr196/40.0EVANSTON VOR/DME109.6013E

Heliport Services

Runway Information

Helipad H1

Dimensions: 76 x 76 ft. / 23 x 23 m
Surface: concrete
Runway edge lights: PERI
Latitude: 40-41.270333N
Longitude: 111-28.238000W
Elevation: 6759.0 ft.
Traffic pattern: leftleft

Heliport Ownership and Management from official FAA records

Ownership: Privately-owned
Owner: IHC HEALTH SERVICES INC.
250 N 2370 W, STE 2300
SALT LAKE CITY, UT 84116
Phone (801) 321-3385
Manager: WILLIAM E. BUTTS
250 N 2370 W, STE 2300
SALT LAKE CITY, UT 84116
Phone (801) 321-3385

Additional Remarks

FOR CD CTC SALT LAKE ARTCC AT 801-320-2568.

Instrument Procedures

There are no published instrument procedures at 36UT.

Some nearby airports with instrument procedures:

KHCR - Heber Valley Airport (13 nm S)
KSLC - Salt Lake City International Airport (24 nm W)
U42 - South Valley Regional Airport (24 nm W)
KPVU - Provo Municipal Airport (30 nm S)
KSPK - Spanish Fork Airport Springville-Woodhouse Field (34 nm S)
 
Loc | Ops | Rwys | IFR | FBO | Links
Com | Nav | Svcs | Stats | Notes
Aerial photo
No photo
 
Airport distance calculator
Flying to Park City Regional Medical Center Heliport? Find the distance to fly.

From to 36UT

Sunrise and sunset
Times for 17-Nov-2019
 Local
(UTC-7)
 Zulu
(UTC)
Morning civil twilight06:4713:47
Sunrise07:1614:16
Sunset17:0600:06
Evening civil twilight17:3500:35

Current date and time
Zulu (UTC)  17-Nov-2019 18:35:06
Local (UTC-7)  17-Nov-2019 11:35:06
 
METAR
KHCR 
13nm S 
171815Z AUTO 00000KT 10SM CLR 06/M04 A3037 RMK AO2
KSLC 
23nm W 
171754Z 15006KT 10SM FEW200 10/M02 A3038 RMK AO2 SLP281 T01001022 10100 20011 53001
KU42 
24nm W 
171815Z AUTO 15006KT 10SM CLR 10/01 A3039 RMK AO1 T00960012
TAF
KHCR 
13nm S 
171728Z 1718/1818 VRB04KT P6SM SCT200 FM172100 22006KT P6SM SCT200 FM180100 VRB03KT P6SM SCT200
NOTAMs
Click for the latest NOTAMs
NOTAMs are issued by the DoD/FAA and will open in a separate window not controlled by AirNav.

 

 
 

Would you like to see your business listed on this page?

 If your business provides an interesting product or service to pilots, flight crews, aircraft, or users of the Park City Regional Medical Center Heliport, you should consider listing it here.  To start the listing process, click on the button below
 
Add a business
 

Other Pages about Park City Regional Medical Center Heliport

Update a link
 
Copyright © AirNav, LLC. All rights reserved. Privacy Policy  Contact